sensor_id;sensor_type;location;lat;lon;timestamp;temperature;humidity
36652;DHT22;53334;51.976;20.144;2023-04-03T00:00:14;25.80;54.40
36652;DHT22;53334;51.976;20.144;2023-04-03T00:02:48;25.80;54.50
36652;DHT22;53334;51.976;20.144;2023-04-03T00:05:23;25.80;54.40
36652;DHT22;53334;51.976;20.144;2023-04-03T00:07:56;25.80;54.40
36652;DHT22;53334;51.976;20.144;2023-04-03T00:10:29;25.90;54.50
36652;DHT22;53334;51.976;20.144;2023-04-03T00:13:04;25.80;54.30
36652;DHT22;53334;51.976;20.144;2023-04-03T00:15:38;25.80;54.40
36652;DHT22;53334;51.976;20.144;2023-04-03T00:18:11;25.80;54.40
36652;DHT22;53334;51.976;20.144;2023-04-03T00:20:47;25.80;54.50
36652;DHT22;53334;51.976;20.144;2023-04-03T00:23:20;25.80;54.50
36652;DHT22;53334;51.976;20.144;2023-04-03T00:25:55;25.80;54.50
36652;DHT22;53334;51.976;20.144;2023-04-03T00:28:29;25.80;54.50
36652;DHT22;53334;51.976;20.144;2023-04-03T00:31:02;25.80;54.50
36652;DHT22;53334;51.976;20.144;2023-04-03T00:33:36;25.80;54.60
36652;DHT22;53334;51.976;20.144;2023-04-03T00:36:11;25.80;54.70
36652;DHT22;53334;51.976;20.144;2023-04-03T00:38:45;25.80;54.50
36652;DHT22;53334;51.976;20.144;2023-04-03T00:41:19;25.80;54.40
36652;DHT22;53334;51.976;20.144;2023-04-03T00:43:53;25.80;54.00
36652;DHT22;53334;51.976;20.144;2023-04-03T00:46:26;25.80;53.80
36652;DHT22;53334;51.976;20.144;2023-04-03T00:49:00;25.80;54.00
36652;DHT22;53334;51.976;20.144;2023-04-03T00:51:35;25.80;54.00
36652;DHT22;53334;51.976;20.144;2023-04-03T00:54:08;25.80;53.70
36652;DHT22;53334;51.976;20.144;2023-04-03T00:56:43;25.80;53.20
36652;DHT22;53334;51.976;20.144;2023-04-03T00:59:21;25.80;53.20
36652;DHT22;53334;51.976;20.144;2023-04-03T01:01:58;25.80;53.10
36652;DHT22;53334;51.976;20.144;2023-04-03T01:04:35;25.80;53.10
36652;DHT22;53334;51.976;20.144;2023-04-03T01:07:13;25.80;53.00
36652;DHT22;53334;51.976;20.144;2023-04-03T01:09:51;25.70;52.80
36652;DHT22;53334;51.976;20.144;2023-04-03T01:12:29;25.80;52.80
36652;DHT22;53334;51.976;20.144;2023-04-03T01:15:05;25.70;52.70
36652;DHT22;53334;51.976;20.144;2023-04-03T01:17:41;25.80;52.50
36652;DHT22;53334;51.976;20.144;2023-04-03T01:20:50;25.70;52.80
36652;DHT22;53334;51.976;20.144;2023-04-03T01:23:46;25.70;52.60
36652;DHT22;53334;51.976;20.144;2023-04-03T01:26:20;25.70;53.20
36652;DHT22;53334;51.976;20.144;2023-04-03T01:28:54;25.70;53.40
36652;DHT22;53334;51.976;20.144;2023-04-03T01:31:31;25.70;53.70
36652;DHT22;53334;51.976;20.144;2023-04-03T01:34:08;25.70;53.80
36652;DHT22;53334;51.976;20.144;2023-04-03T01:36:41;25.70;53.70
36652;DHT22;53334;51.976;20.144;2023-04-03T01:39:15;25.70;53.70
36652;DHT22;53334;51.976;20.144;2023-04-03T01:41:49;25.70;53.70
36652;DHT22;53334;51.976;20.144;2023-04-03T01:44:28;25.70;53.60
36652;DHT22;53334;51.976;20.144;2023-04-03T01:47:05;25.70;53.70
36652;DHT22;53334;51.976;20.144;2023-04-03T01:49:41;25.70;53.80
36652;DHT22;53334;51.976;20.144;2023-04-03T01:52:14;25.70;53.70
36652;DHT22;53334;51.976;20.144;2023-04-03T01:54:48;25.70;53.70
36652;DHT22;53334;51.976;20.144;2023-04-03T01:57:22;25.70;53.70
36652;DHT22;53334;51.976;20.144;2023-04-03T01:59:56;25.70;53.80
36652;DHT22;53334;51.976;20.144;2023-04-03T02:02:29;25.70;53.50
36652;DHT22;53334;51.976;20.144;2023-04-03T02:05:05;25.70;53.50
36652;DHT22;53334;51.976;20.144;2023-04-03T02:07:38;25.60;53.60
36652;DHT22;53334;51.976;20.144;2023-04-03T02:10:12;25.60;53.60
36652;DHT22;53334;51.976;20.144;2023-04-03T02:12:46;25.60;53.80
36652;DHT22;53334;51.976;20.144;2023-04-03T02:15:20;25.60;53.50
36652;DHT22;53334;51.976;20.144;2023-04-03T02:17:53;25.70;54.00
36652;DHT22;53334;51.976;20.144;2023-04-03T02:20:29;25.60;53.30
36652;DHT22;53334;51.976;20.144;2023-04-03T02:23:03;25.70;53.30
36652;DHT22;53334;51.976;20.144;2023-04-03T02:25:37;25.60;53.20
36652;DHT22;53334;51.976;20.144;2023-04-03T02:28:10;25.60;53.30
36652;DHT22;53334;51.976;20.144;2023-04-03T02:30:44;25.60;53.10
36652;DHT22;53334;51.976;20.144;2023-04-03T02:33:17;25.60;53.30
36652;DHT22;53334;51.976;20.144;2023-04-03T02:35:54;25.60;52.90
36652;DHT22;53334;51.976;20.144;2023-04-03T02:38:28;25.60;53.00
36652;DHT22;53334;51.976;20.144;2023-04-03T02:41:02;25.60;53.00
36652;DHT22;53334;51.976;20.144;2023-04-03T02:43:37;25.60;52.90
36652;DHT22;53334;51.976;20.144;2023-04-03T02:46:11;25.60;53.00
36652;DHT22;53334;51.976;20.144;2023-04-03T02:48:47;25.60;52.90
36652;DHT22;53334;51.976;20.144;2023-04-03T02:51:22;25.60;52.90
36652;DHT22;53334;51.976;20.144;2023-04-03T02:53:57;25.60;53.00
36652;DHT22;53334;51.976;20.144;2023-04-03T02:56:35;25.60;52.90
36652;DHT22;53334;51.976;20.144;2023-04-03T02:59:09;25.60;53.00
36652;DHT22;53334;51.976;20.144;2023-04-03T03:01:44;25.60;53.00
36652;DHT22;53334;51.976;20.144;2023-04-03T03:04:18;25.60;53.00
36652;DHT22;53334;51.976;20.144;2023-04-03T03:06:52;25.60;52.90
36652;DHT22;53334;51.976;20.144;2023-04-03T03:09:26;25.60;52.80
36652;DHT22;53334;51.976;20.144;2023-04-03T03:12:01;25.60;52.90
36652;DHT22;53334;51.976;20.144;2023-04-03T03:14:34;25.60;53.00
36652;DHT22;53334;51.976;20.144;2023-04-03T03:17:08;25.60;52.80
36652;DHT22;53334;51.976;20.144;2023-04-03T03:19:41;25.60;52.70
36652;DHT22;53334;51.976;20.144;2023-04-03T03:22:16;25.50;52.90
36652;DHT22;53334;51.976;20.144;2023-04-03T03:24:49;25.60;52.90
36652;DHT22;53334;51.976;20.144;2023-04-03T03:27:23;25.60;53.00
36652;DHT22;53334;51.976;20.144;2023-04-03T03:29:56;25.60;53.00
36652;DHT22;53334;51.976;20.144;2023-04-03T03:32:30;25.60;52.00
36652;DHT22;53334;51.976;20.144;2023-04-03T03:35:04;25.50;53.00
36652;DHT22;53334;51.976;20.144;2023-04-03T03:37:38;25.50;52.90
36652;DHT22;53334;51.976;20.144;2023-04-03T03:40:12;25.50;52.80
36652;DHT22;53334;51.976;20.144;2023-04-03T03:42:49;25.50;52.80
36652;DHT22;53334;51.976;20.144;2023-04-03T03:45:22;25.50;52.60
36652;DHT22;53334;51.976;20.144;2023-04-03T03:47:56;25.50;52.60
36652;DHT22;53334;51.976;20.144;2023-04-03T03:50:30;25.50;52.10
36652;DHT22;53334;51.976;20.144;2023-04-03T03:53:05;25.50;52.60
36652;DHT22;53334;51.976;20.144;2023-04-03T03:55:38;25.50;52.50
36652;DHT22;53334;51.976;20.144;2023-04-03T03:58:12;25.50;52.50
36652;DHT22;53334;51.976;20.144;2023-04-03T04:00:45;25.50;52.50
36652;DHT22;53334;51.976;20.144;2023-04-03T04:03:19;25.50;52.40
36652;DHT22;53334;51.976;20.144;2023-04-03T04:05:54;25.50;52.30
36652;DHT22;53334;51.976;20.144;2023-04-03T04:08:29;25.50;52.20
36652;DHT22;53334;51.976;20.144;2023-04-03T04:11:03;25.50;52.20
36652;DHT22;53334;51.976;20.144;2023-04-03T04:13:36;25.50;52.10
36652;DHT22;53334;51.976;20.144;2023-04-03T04:16:11;25.50;52.20
36652;DHT22;53334;51.976;20.144;2023-04-03T04:18:44;25.50;52.30
36652;DHT22;53334;51.976;20.144;2023-04-03T04:21:18;25.50;52.40
36652;DHT22;53334;51.976;20.144;2023-04-03T04:23:53;25.50;52.10
36652;DHT22;53334;51.976;20.144;2023-04-03T04:26:27;25.50;51.40
36652;DHT22;53334;51.976;20.144;2023-04-03T04:29:01;25.50;52.00
36652;DHT22;53334;51.976;20.144;2023-04-03T04:31:38;25.50;52.00
36652;DHT22;53334;51.976;20.144;2023-04-03T04:34:11;25.50;52.20
36652;DHT22;53334;51.976;20.144;2023-04-03T04:36:45;25.50;51.50
36652;DHT22;53334;51.976;20.144;2023-04-03T04:39:20;25.50;52.00
36652;DHT22;53334;51.976;20.144;2023-04-03T04:41:53;25.40;51.90
36652;DHT22;53334;51.976;20.144;2023-04-03T04:44:28;25.50;51.90
36652;DHT22;53334;51.976;20.144;2023-04-03T04:47:28;25.50;52.00
36652;DHT22;53334;51.976;20.144;2023-04-03T04:50:02;25.50;51.80
36652;DHT22;53334;51.976;20.144;2023-04-03T04:52:37;25.50;52.00
36652;DHT22;53334;51.976;20.144;2023-04-03T04:55:14;25.50;51.70
36652;DHT22;53334;51.976;20.144;2023-04-03T04:57:47;25.50;51.70
36652;DHT22;53334;51.976;20.144;2023-04-03T05:00:21;25.40;51.50
36652;DHT22;53334;51.976;20.144;2023-04-03T05:02:54;25.50;51.00
36652;DHT22;53334;51.976;20.144;2023-04-03T05:05:28;25.40;51.60
36652;DHT22;53334;51.976;20.144;2023-04-03T05:08:02;25.40;51.60
36652;DHT22;53334;51.976;20.144;2023-04-03T05:10:37;25.40;51.60
36652;DHT22;53334;51.976;20.144;2023-04-03T05:13:13;25.40;52.30
36652;DHT22;53334;51.976;20.144;2023-04-03T05:15:47;25.40;52.60
36652;DHT22;53334;51.976;20.144;2023-04-03T05:18:21;25.40;52.70
36652;DHT22;53334;51.976;20.144;2023-04-03T05:20:55;25.40;52.80
36652;DHT22;53334;51.976;20.144;2023-04-03T05:23:31;25.40;52.30
36652;DHT22;53334;51.976;20.144;2023-04-03T05:26:08;25.40;51.80
36652;DHT22;53334;51.976;20.144;2023-04-03T05:28:43;25.50;52.10
36652;DHT22;53334;51.976;20.144;2023-04-03T05:31:17;25.40;51.80
36652;DHT22;53334;51.976;20.144;2023-04-03T05:33:51;25.50;51.60
36652;DHT22;53334;51.976;20.144;2023-04-03T05:36:25;25.40;50.40
36652;DHT22;53334;51.976;20.144;2023-04-03T05:39:04;25.40;49.00
36652;DHT22;53334;51.976;20.144;2023-04-03T05:41:42;25.40;47.60
36652;DHT22;53334;51.976;20.144;2023-04-03T05:44:16;25.40;46.70
36652;DHT22;53334;51.976;20.144;2023-04-03T05:46:51;25.40;46.50
36652;DHT22;53334;51.976;20.144;2023-04-03T05:49:25;25.40;46.80
36652;DHT22;53334;51.976;20.144;2023-04-03T05:51:59;25.40;46.60
36652;DHT22;53334;51.976;20.144;2023-04-03T05:54:35;25.40;46.60
36652;DHT22;53334;51.976;20.144;2023-04-03T05:57:20;25.40;46.60
36652;DHT22;53334;51.976;20.144;2023-04-03T05:59:54;25.40;46.60
36652;DHT22;53334;51.976;20.144;2023-04-03T06:02:27;25.50;46.60
36652;DHT22;53334;51.976;20.144;2023-04-03T06:05:02;25.50;46.60
36652;DHT22;53334;51.976;20.144;2023-04-03T06:07:36;25.40;46.60
36652;DHT22;53334;51.976;20.144;2023-04-03T06:10:11;25.50;46.60
36652;DHT22;53334;51.976;20.144;2023-04-03T06:12:46;25.50;46.70
36652;DHT22;53334;51.976;20.144;2023-04-03T06:15:44;25.50;46.70
36652;DHT22;53334;51.976;20.144;2023-04-03T06:18:18;25.50;46.70
36652;DHT22;53334;51.976;20.144;2023-04-03T06:20:52;25.60;46.80
36652;DHT22;53334;51.976;20.144;2023-04-03T06:23:26;25.50;46.70
36652;DHT22;53334;51.976;20.144;2023-04-03T06:25:59;25.50;46.60
36652;DHT22;53334;51.976;20.144;2023-04-03T06:28:35;25.50;46.50
36652;DHT22;53334;51.976;20.144;2023-04-03T06:31:08;25.50;46.50
36652;DHT22;53334;51.976;20.144;2023-04-03T06:33:42;25.60;46.70
36652;DHT22;53334;51.976;20.144;2023-04-03T06:36:18;25.60;46.70
36652;DHT22;53334;51.976;20.144;2023-04-03T06:38:53;25.60;46.90
36652;DHT22;53334;51.976;20.144;2023-04-03T06:41:26;25.60;47.00
36652;DHT22;53334;51.976;20.144;2023-04-03T06:44:01;25.60;47.00
36652;DHT22;53334;51.976;20.144;2023-04-03T06:46:35;25.60;47.20
36652;DHT22;53334;51.976;20.144;2023-04-03T06:49:09;25.60;47.00
36652;DHT22;53334;51.976;20.144;2023-04-03T06:51:42;25.60;47.00
36652;DHT22;53334;51.976;20.144;2023-04-03T06:54:15;25.60;47.00
36652;DHT22;53334;51.976;20.144;2023-04-03T06:56:49;25.60;47.20
36652;DHT22;53334;51.976;20.144;2023-04-03T06:59:24;25.60;47.20
36652;DHT22;53334;51.976;20.144;2023-04-03T07:01:58;25.70;47.10
36652;DHT22;53334;51.976;20.144;2023-04-03T07:04:31;25.70;47.00
36652;DHT22;53334;51.976;20.144;2023-04-03T07:07:05;25.60;46.80
36652;DHT22;53334;51.976;20.144;2023-04-03T07:09:39;25.60;46.80
36652;DHT22;53334;51.976;20.144;2023-04-03T07:12:16;25.70;46.70
36652;DHT22;53334;51.976;20.144;2023-04-03T07:14:51;25.70;46.60
36652;DHT22;53334;51.976;20.144;2023-04-03T07:17:24;25.70;46.40
36652;DHT22;53334;51.976;20.144;2023-04-03T07:19:59;25.70;46.50
36652;DHT22;53334;51.976;20.144;2023-04-03T07:22:36;25.70;46.40
36652;DHT22;53334;51.976;20.144;2023-04-03T07:25:09;25.70;46.50
36652;DHT22;53334;51.976;20.144;2023-04-03T07:27:42;25.70;46.40
36652;DHT22;53334;51.976;20.144;2023-04-03T07:30:17;25.70;46.40
36652;DHT22;53334;51.976;20.144;2023-04-03T07:32:51;25.70;46.30
36652;DHT22;53334;51.976;20.144;2023-04-03T07:35:24;25.70;46.30
36652;DHT22;53334;51.976;20.144;2023-04-03T07:37:58;25.70;46.20
36652;DHT22;53334;51.976;20.144;2023-04-03T07:40:32;25.70;46.00
36652;DHT22;53334;51.976;20.144;2023-04-03T07:43:05;25.70;46.00
36652;DHT22;53334;51.976;20.144;2023-04-03T07:45:41;25.80;45.80
36652;DHT22;53334;51.976;20.144;2023-04-03T07:48:16;25.80;45.80
36652;DHT22;53334;51.976;20.144;2023-04-03T07:50:50;25.80;45.50
36652;DHT22;53334;51.976;20.144;2023-04-03T07:53:24;25.80;45.50
36652;DHT22;53334;51.976;20.144;2023-04-03T07:55:57;25.80;45.40
36652;DHT22;53334;51.976;20.144;2023-04-03T07:58:32;25.80;45.30
36652;DHT22;53334;51.976;20.144;2023-04-03T08:01:07;25.80;45.10
36652;DHT22;53334;51.976;20.144;2023-04-03T08:03:40;25.80;45.00
36652;DHT22;53334;51.976;20.144;2023-04-03T08:06:14;25.80;45.00
36652;DHT22;53334;51.976;20.144;2023-04-03T08:08:56;25.80;45.10
36652;DHT22;53334;51.976;20.144;2023-04-03T08:11:31;25.80;45.20
36652;DHT22;53334;51.976;20.144;2023-04-03T08:14:05;25.80;45.30
36652;DHT22;53334;51.976;20.144;2023-04-03T08:16:41;25.80;45.60
36652;DHT22;53334;51.976;20.144;2023-04-03T08:19:16;25.90;45.70
36652;DHT22;53334;51.976;20.144;2023-04-03T08:21:57;25.90;45.70
36652;DHT22;53334;51.976;20.144;2023-04-03T08:24:33;25.90;45.70
36652;DHT22;53334;51.976;20.144;2023-04-03T08:27:30;25.90;45.80
36652;DHT22;53334;51.976;20.144;2023-04-03T08:30:08;25.90;45.60
36652;DHT22;53334;51.976;20.144;2023-04-03T08:32:43;25.90;45.40
36652;DHT22;53334;51.976;20.144;2023-04-03T08:35:17;26.00;45.00
36652;DHT22;53334;51.976;20.144;2023-04-03T08:37:51;26.00;44.90
36652;DHT22;53334;51.976;20.144;2023-04-03T08:40:25;26.00;44.90
36652;DHT22;53334;51.976;20.144;2023-04-03T08:43:01;26.00;44.80
36652;DHT22;53334;51.976;20.144;2023-04-03T08:45:43;26.00;44.60
36652;DHT22;53334;51.976;20.144;2023-04-03T08:48:20;26.00;44.80
36652;DHT22;53334;51.976;20.144;2023-04-03T08:50:58;26.10;44.80
36652;DHT22;53334;51.976;20.144;2023-04-03T08:53:37;26.10;44.80
36652;DHT22;53334;51.976;20.144;2023-04-03T08:56:14;26.10;44.70
36652;DHT22;53334;51.976;20.144;2023-04-03T08:58:54;26.10;44.50
36652;DHT22;53334;51.976;20.144;2023-04-03T09:01:34;26.10;44.30
36652;DHT22;53334;51.976;20.144;2023-04-03T09:04:13;26.00;33.10
36652;DHT22;53334;51.976;20.144;2023-04-03T09:06:52;25.70;27.30
36652;DHT22;53334;51.976;20.144;2023-04-03T09:09:31;25.50;26.80
36652;DHT22;53334;51.976;20.144;2023-04-03T09:12:15;25.30;27.40
36652;DHT22;53334;51.976;20.144;2023-04-03T09:14:57;25.20;27.60
36652;DHT22;53334;51.976;20.144;2023-04-03T09:17:41;25.20;28.20
36652;DHT22;53334;51.976;20.144;2023-04-03T09:20:23;25.20;28.60
36652;DHT22;53334;51.976;20.144;2023-04-03T09:22:57;25.20;29.10
36652;DHT22;53334;51.976;20.144;2023-04-03T09:25:32;25.20;29.10
36652;DHT22;53334;51.976;20.144;2023-04-03T09:28:07;25.30;29.20
36652;DHT22;53334;51.976;20.144;2023-04-03T09:30:43;25.30;30.30
36652;DHT22;53334;51.976;20.144;2023-04-03T09:33:17;25.30;30.40
36652;DHT22;53334;51.976;20.144;2023-04-03T09:36:41;25.30;31.50
36652;DHT22;53334;51.976;20.144;2023-04-03T09:39:16;25.40;33.00
36652;DHT22;53334;51.976;20.144;2023-04-03T09:41:59;25.40;32.60
36652;DHT22;53334;51.976;20.144;2023-04-03T09:44:35;25.40;33.60
36652;DHT22;53334;51.976;20.144;2023-04-03T09:47:18;25.40;33.10
36652;DHT22;53334;51.976;20.144;2023-04-03T09:50:10;25.50;33.90
36652;DHT22;53334;51.976;20.144;2023-04-03T09:52:51;25.50;34.90
36652;DHT22;53334;51.976;20.144;2023-04-03T09:55:26;25.50;34.70
36652;DHT22;53334;51.976;20.144;2023-04-03T09:58:02;25.60;34.60
36652;DHT22;53334;51.976;20.144;2023-04-03T10:00:38;25.60;34.70
36652;DHT22;53334;51.976;20.144;2023-04-03T10:03:24;25.60;34.90
36652;DHT22;53334;51.976;20.144;2023-04-03T10:06:00;25.60;34.70
36652;DHT22;53334;51.976;20.144;2023-04-03T10:08:35;25.60;35.30
36652;DHT22;53334;51.976;20.144;2023-04-03T10:11:12;25.60;35.30
36652;DHT22;53334;51.976;20.144;2023-04-03T10:13:54;25.60;35.80
36652;DHT22;53334;51.976;20.144;2023-04-03T10:16:35;25.60;36.30
36652;DHT22;53334;51.976;20.144;2023-04-03T10:19:25;25.60;36.50
36652;DHT22;53334;51.976;20.144;2023-04-03T10:22:06;25.60;37.90
36652;DHT22;53334;51.976;20.144;2023-04-03T10:24:52;25.60;36.90
36652;DHT22;53334;51.976;20.144;2023-04-03T10:27:37;25.60;37.10
36652;DHT22;53334;51.976;20.144;2023-04-03T10:30:21;25.60;37.20
36652;DHT22;53334;51.976;20.144;2023-04-03T10:33:03;25.60;37.90
36652;DHT22;53334;51.976;20.144;2023-04-03T10:35:44;25.60;37.50
36652;DHT22;53334;51.976;20.144;2023-04-03T10:38:32;25.60;37.40
36652;DHT22;53334;51.976;20.144;2023-04-03T10:41:17;25.60;38.50
36652;DHT22;53334;51.976;20.144;2023-04-03T10:44:02;25.60;37.90
36652;DHT22;53334;51.976;20.144;2023-04-03T10:46:41;25.60;38.20
36652;DHT22;53334;51.976;20.144;2023-04-03T10:49:32;25.60;37.90
36652;DHT22;53334;51.976;20.144;2023-04-03T10:52:13;25.60;38.20
36652;DHT22;53334;51.976;20.144;2023-04-03T10:54:56;25.60;38.10
36652;DHT22;53334;51.976;20.144;2023-04-03T10:57:34;25.60;38.20
36652;DHT22;53334;51.976;20.144;2023-04-03T11:00:45;25.60;38.50
36652;DHT22;53334;51.976;20.144;2023-04-03T11:03:29;25.60;38.90
36652;DHT22;53334;51.976;20.144;2023-04-03T11:06:08;25.70;39.70
36652;DHT22;53334;51.976;20.144;2023-04-03T11:09:18;25.60;39.70
36652;DHT22;53334;51.976;20.144;2023-04-03T11:11:56;25.70;40.10
36652;DHT22;53334;51.976;20.144;2023-04-03T11:14:36;25.70;40.10
36652;DHT22;53334;51.976;20.144;2023-04-03T11:17:19;25.70;40.10
36652;DHT22;53334;51.976;20.144;2023-04-03T11:20:00;25.70;40.10
36652;DHT22;53334;51.976;20.144;2023-04-03T11:22:37;25.70;40.00
36652;DHT22;53334;51.976;20.144;2023-04-03T11:25:17;25.70;40.20
36652;DHT22;53334;51.976;20.144;2023-04-03T11:27:56;25.70;40.30
36652;DHT22;53334;51.976;20.144;2023-04-03T11:30:39;25.70;40.40
36652;DHT22;53334;51.976;20.144;2023-04-03T11:33:24;25.70;40.70
36652;DHT22;53334;51.976;20.144;2023-04-03T11:36:05;25.70;40.80
36652;DHT22;53334;51.976;20.144;2023-04-03T11:38:58;25.70;40.90
36652;DHT22;53334;51.976;20.144;2023-04-03T11:41:33;25.70;40.90
36652;DHT22;53334;51.976;20.144;2023-04-03T11:44:30;25.70;40.80
36652;DHT22;53334;51.976;20.144;2023-04-03T11:47:07;25.70;41.00
36652;DHT22;53334;51.976;20.144;2023-04-03T11:49:52;25.70;41.20
36652;DHT22;53334;51.976;20.144;2023-04-03T11:52:58;25.70;41.30
36652;DHT22;53334;51.976;20.144;2023-04-03T11:55:56;25.70;41.40
36652;DHT22;53334;51.976;20.144;2023-04-03T11:58:32;25.70;41.40
36652;DHT22;53334;51.976;20.144;2023-04-03T12:01:08;25.70;41.20
36652;DHT22;53334;51.976;20.144;2023-04-03T12:04:05;25.70;41.30
36652;DHT22;53334;51.976;20.144;2023-04-03T12:09:58;25.70;41.60
36652;DHT22;53334;51.976;20.144;2023-04-03T12:12:39;25.70;41.70
36652;DHT22;53334;51.976;20.144;2023-04-03T12:15:25;25.70;41.70
36652;DHT22;53334;51.976;20.144;2023-04-03T12:17:59;25.70;41.80
36652;DHT22;53334;51.976;20.144;2023-04-03T12:20:55;25.70;41.70
36652;DHT22;53334;51.976;20.144;2023-04-03T12:23:31;25.70;41.80
36652;DHT22;53334;51.976;20.144;2023-04-03T12:26:20;25.70;41.70
36652;DHT22;53334;51.976;20.144;2023-04-03T12:28:55;25.70;41.90
36652;DHT22;53334;51.976;20.144;2023-04-03T12:31:33;25.70;41.80
36652;DHT22;53334;51.976;20.144;2023-04-03T12:34:21;25.70;41.90
36652;DHT22;53334;51.976;20.144;2023-04-03T12:37:02;25.70;42.00
36652;DHT22;53334;51.976;20.144;2023-04-03T12:39:54;25.70;42.10
36652;DHT22;53334;51.976;20.144;2023-04-03T12:43:07;25.70;42.20
36652;DHT22;53334;51.976;20.144;2023-04-03T12:45:46;25.70;42.30
36652;DHT22;53334;51.976;20.144;2023-04-03T12:48:25;25.70;42.30
36652;DHT22;53334;51.976;20.144;2023-04-03T12:50:59;25.70;42.30
36652;DHT22;53334;51.976;20.144;2023-04-03T12:53:35;25.70;42.60
36652;DHT22;53334;51.976;20.144;2023-04-03T12:56:22;25.70;42.50
36652;DHT22;53334;51.976;20.144;2023-04-03T12:59:14;25.70;41.90
36652;DHT22;53334;51.976;20.144;2023-04-03T13:01:54;25.70;41.70
36652;DHT22;53334;51.976;20.144;2023-04-03T13:04:29;25.70;41.20
36652;DHT22;53334;51.976;20.144;2023-04-03T13:07:03;25.60;40.50
36652;DHT22;53334;51.976;20.144;2023-04-03T13:09:37;25.60;40.50
36652;DHT22;53334;51.976;20.144;2023-04-03T13:12:12;25.60;40.50
36652;DHT22;53334;51.976;20.144;2023-04-03T13:14:54;25.60;40.40
36652;DHT22;53334;51.976;20.144;2023-04-03T13:17:27;25.60;40.60
36652;DHT22;53334;51.976;20.144;2023-04-03T13:20:16;25.60;40.30
36652;DHT22;53334;51.976;20.144;2023-04-03T13:22:57;25.60;40.70
36652;DHT22;53334;51.976;20.144;2023-04-03T13:25:34;25.60;40.60
36652;DHT22;53334;51.976;20.144;2023-04-03T13:28:12;25.60;40.90
36652;DHT22;53334;51.976;20.144;2023-04-03T13:30:59;25.60;41.10
36652;DHT22;53334;51.976;20.144;2023-04-03T13:33:36;25.60;41.40
36652;DHT22;53334;51.976;20.144;2023-04-03T13:36:17;25.60;41.40
36652;DHT22;53334;51.976;20.144;2023-04-03T13:38:58;25.60;41.50
36652;DHT22;53334;51.976;20.144;2023-04-03T13:41:34;25.60;41.60
36652;DHT22;53334;51.976;20.144;2023-04-03T13:44:24;25.60;41.90
36652;DHT22;53334;51.976;20.144;2023-04-03T13:47:14;25.60;42.10
36652;DHT22;53334;51.976;20.144;2023-04-03T13:50:00;25.70;42.70
36652;DHT22;53334;51.976;20.144;2023-04-03T13:52:40;25.70;43.60
36652;DHT22;53334;51.976;20.144;2023-04-03T13:55:21;25.70;43.60
36652;DHT22;53334;51.976;20.144;2023-04-03T13:58:00;25.70;43.60
36652;DHT22;53334;51.976;20.144;2023-04-03T14:00:37;25.70;43.70
36652;DHT22;53334;51.976;20.144;2023-04-03T14:03:19;25.70;44.00
36652;DHT22;53334;51.976;20.144;2023-04-03T14:06:05;25.70;44.10
36652;DHT22;53334;51.976;20.144;2023-04-03T14:08:50;25.80;44.00
36652;DHT22;53334;51.976;20.144;2023-04-03T14:11:29;25.80;44.10
36652;DHT22;53334;51.976;20.144;2023-04-03T14:14:28;25.80;44.20
36652;DHT22;53334;51.976;20.144;2023-04-03T14:17:16;25.80;44.40
36652;DHT22;53334;51.976;20.144;2023-04-03T14:19:58;25.80;44.00
36652;DHT22;53334;51.976;20.144;2023-04-03T14:22:34;25.80;43.80
36652;DHT22;53334;51.976;20.144;2023-04-03T14:25:09;25.70;43.60
36652;DHT22;53334;51.976;20.144;2023-04-03T14:27:46;25.80;43.50
36652;DHT22;53334;51.976;20.144;2023-04-03T14:30:23;25.70;43.40
36652;DHT22;53334;51.976;20.144;2023-04-03T14:32:57;25.80;43.40
36652;DHT22;53334;51.976;20.144;2023-04-03T14:35:33;25.70;43.20
36652;DHT22;53334;51.976;20.144;2023-04-03T14:38:20;25.70;43.10
36652;DHT22;53334;51.976;20.144;2023-04-03T14:40:55;25.70;43.00
36652;DHT22;53334;51.976;20.144;2023-04-03T14:43:45;25.70;42.80
36652;DHT22;53334;51.976;20.144;2023-04-03T14:46:26;25.70;42.50
36652;DHT22;53334;51.976;20.144;2023-04-03T14:49:24;25.70;42.50
36652;DHT22;53334;51.976;20.144;2023-04-03T14:51:59;25.70;42.40
36652;DHT22;53334;51.976;20.144;2023-04-03T14:54:33;25.70;42.40
36652;DHT22;53334;51.976;20.144;2023-04-03T14:57:09;25.70;42.40
36652;DHT22;53334;51.976;20.144;2023-04-03T14:59:45;25.70;42.30
36652;DHT22;53334;51.976;20.144;2023-04-03T15:02:27;25.70;42.30
36652;DHT22;53334;51.976;20.144;2023-04-03T15:05:04;25.70;42.30
36652;DHT22;53334;51.976;20.144;2023-04-03T15:07:41;25.70;42.20
36652;DHT22;53334;51.976;20.144;2023-04-03T15:10:17;25.60;42.10
36652;DHT22;53334;51.976;20.144;2023-04-03T15:12:52;25.60;42.10
36652;DHT22;53334;51.976;20.144;2023-04-03T15:15:28;25.60;42.10
36652;DHT22;53334;51.976;20.144;2023-04-03T15:18:02;25.60;41.90
36652;DHT22;53334;51.976;20.144;2023-04-03T15:20:36;25.60;42.00
36652;DHT22;53334;51.976;20.144;2023-04-03T15:23:13;25.60;42.10
36652;DHT22;53334;51.976;20.144;2023-04-03T15:25:48;25.60;42.20
36652;DHT22;53334;51.976;20.144;2023-04-03T15:28:26;25.70;36.90
36652;DHT22;53334;51.976;20.144;2023-04-03T15:31:02;25.50;30.40
36652;DHT22;53334;51.976;20.144;2023-04-03T15:33:36;25.50;29.20
36652;DHT22;53334;51.976;20.144;2023-04-03T15:36:10;25.40;29.90
36652;DHT22;53334;51.976;20.144;2023-04-03T15:38:49;25.40;30.00
36652;DHT22;53334;51.976;20.144;2023-04-03T15:41:23;25.30;30.70
36652;DHT22;53334;51.976;20.144;2023-04-03T15:43:57;25.30;31.70
36652;DHT22;53334;51.976;20.144;2023-04-03T15:46:32;25.30;32.00
36652;DHT22;53334;51.976;20.144;2023-04-03T15:49:06;25.30;32.00
36652;DHT22;53334;51.976;20.144;2023-04-03T15:51:39;25.30;32.40
36652;DHT22;53334;51.976;20.144;2023-04-03T15:54:15;25.30;32.70
36652;DHT22;53334;51.976;20.144;2023-04-03T15:56:49;25.40;32.50
36652;DHT22;53334;51.976;20.144;2023-04-03T15:59:22;25.40;32.90
36652;DHT22;53334;51.976;20.144;2023-04-03T16:01:56;25.40;33.10
36652;DHT22;53334;51.976;20.144;2023-04-03T16:04:30;25.30;33.30
36652;DHT22;53334;51.976;20.144;2023-04-03T16:07:03;25.40;33.40
36652;DHT22;53334;51.976;20.144;2023-04-03T16:09:38;25.40;33.90
36652;DHT22;53334;51.976;20.144;2023-04-03T16:12:12;25.40;33.60
36652;DHT22;53334;51.976;20.144;2023-04-03T16:14:45;25.40;34.10
36652;DHT22;53334;51.976;20.144;2023-04-03T16:17:19;25.40;34.00
36652;DHT22;53334;51.976;20.144;2023-04-03T16:19:53;25.40;34.20
36652;DHT22;53334;51.976;20.144;2023-04-03T16:22:28;25.40;34.20